sensor_id;sensor_type;location;lat;lon;timestamp;P1;durP1;ratioP1;P2;durP2;ratioP2
76320;SDS011;65132;52.088;5.402;2023-08-17T00:01:17;4.80;;;2.20;;
76320;SDS011;65132;52.088;5.402;2023-08-17T00:03:46;4.07;;;1.77;;
76320;SDS011;65132;52.088;5.402;2023-08-17T00:06:17;4.78;;;2.25;;
76320;SDS011;65132;52.088;5.402;2023-08-17T00:08:55;5.97;;;1.85;;
76320;SDS011;65132;52.088;5.402;2023-08-17T00:11:22;4.93;;;2.25;;
76320;SDS011;65132;52.088;5.402;2023-08-17T00:14:20;4.53;;;1.85;;
76320;SDS011;65132;52.088;5.402;2023-08-17T00:16:51;4.05;;;1.88;;
76320;SDS011;65132;52.088;5.402;2023-08-17T00:19:18;5.63;;;2.55;;
76320;SDS011;65132;52.088;5.402;2023-08-17T00:21:52;4.55;;;2.15;;
76320;SDS011;65132;52.088;5.402;2023-08-17T00:24:20;4.63;;;2.38;;
76320;SDS011;65132;52.088;5.402;2023-08-17T00:26:50;5.53;;;2.22;;
76320;SDS011;65132;52.088;5.402;2023-08-17T00:29:20;4.75;;;2.53;;
76320;SDS011;65132;52.088;5.402;2023-08-17T00:34:30;9.80;;;3.42;;
76320;SDS011;65132;52.088;5.402;2023-08-17T00:36:59;5.10;;;2.42;;
76320;SDS011;65132;52.088;5.402;2023-08-17T00:39:27;4.65;;;2.50;;
76320;SDS011;65132;52.088;5.402;2023-08-17T00:41:56;4.40;;;2.30;;
76320;SDS011;65132;52.088;5.402;2023-08-17T00:44:24;5.68;;;2.38;;
76320;SDS011;65132;52.088;5.402;2023-08-17T00:46:55;6.20;;;2.20;;
76320;SDS011;65132;52.088;5.402;2023-08-17T00:49:43;6.43;;;2.50;;
76320;SDS011;65132;52.088;5.402;2023-08-17T00:52:22;4.10;;;2.65;;
76320;SDS011;65132;52.088;5.402;2023-08-17T00:57:19;3.28;;;2.00;;
76320;SDS011;65132;52.088;5.402;2023-08-17T00:59:47;5.32;;;2.67;;
76320;SDS011;65132;52.088;5.402;2023-08-17T01:02:37;5.60;;;2.33;;
76320;SDS011;65132;52.088;5.402;2023-08-17T01:05:04;5.43;;;2.55;;
76320;SDS011;65132;52.088;5.402;2023-08-17T01:07:31;4.90;;;2.40;;
76320;SDS011;65132;52.088;5.402;2023-08-17T01:10:21;5.15;;;2.60;;
76320;SDS011;65132;52.088;5.402;2023-08-17T01:13:01;5.07;;;2.50;;
76320;SDS011;65132;52.088;5.402;2023-08-17T01:21:10;9.75;;;2.80;;
76320;SDS011;65132;52.088;5.402;2023-08-17T01:23:44;3.65;;;2.70;;
76320;SDS011;65132;52.088;5.402;2023-08-17T01:26:16;5.82;;;2.55;;
76320;SDS011;65132;52.088;5.402;2023-08-17T01:28:49;4.25;;;2.50;;
76320;SDS011;65132;52.088;5.402;2023-08-17T01:31:19;5.78;;;2.30;;
76320;SDS011;65132;52.088;5.402;2023-08-17T01:34:03;4.47;;;2.58;;
76320;SDS011;65132;52.088;5.402;2023-08-17T01:36:55;6.18;;;2.40;;
76320;SDS011;65132;52.088;5.402;2023-08-17T01:39:45;4.97;;;2.63;;
76320;SDS011;65132;52.088;5.402;2023-08-17T01:42:20;4.85;;;2.55;;
76320;SDS011;65132;52.088;5.402;2023-08-17T01:44:50;7.57;;;2.60;;
76320;SDS011;65132;52.088;5.402;2023-08-17T01:47:20;4.15;;;2.60;;
76320;SDS011;65132;52.088;5.402;2023-08-17T01:49:50;7.90;;;2.03;;
76320;SDS011;65132;52.088;5.402;2023-08-17T01:52:19;8.02;;;2.50;;
76320;SDS011;65132;52.088;5.402;2023-08-17T01:54:50;5.10;;;2.08;;
76320;SDS011;65132;52.088;5.402;2023-08-17T01:57:21;4.18;;;2.08;;
76320;SDS011;65132;52.088;5.402;2023-08-17T01:59:47;4.22;;;2.28;;
76320;SDS011;65132;52.088;5.402;2023-08-17T02:02:16;5.45;;;2.10;;
76320;SDS011;65132;52.088;5.402;2023-08-17T02:04:58;3.40;;;1.63;;
76320;SDS011;65132;52.088;5.402;2023-08-17T02:07:26;6.25;;;2.33;;
76320;SDS011;65132;52.088;5.402;2023-08-17T02:09:54;3.85;;;2.00;;
76320;SDS011;65132;52.088;5.402;2023-08-17T02:12:21;7.00;;;2.70;;
76320;SDS011;65132;52.088;5.402;2023-08-17T02:14:52;4.60;;;2.33;;
76320;SDS011;65132;52.088;5.402;2023-08-17T02:17:23;4.93;;;2.17;;
76320;SDS011;65132;52.088;5.402;2023-08-17T02:19:50;6.93;;;2.42;;
76320;SDS011;65132;52.088;5.402;2023-08-17T02:22:16;5.00;;;2.28;;
76320;SDS011;65132;52.088;5.402;2023-08-17T02:24:45;5.45;;;1.88;;
76320;SDS011;65132;52.088;5.402;2023-08-17T02:27:22;8.18;;;2.88;;
76320;SDS011;65132;52.088;5.402;2023-08-17T02:29:51;4.78;;;2.35;;
76320;SDS011;65132;52.088;5.402;2023-08-17T02:32:17;6.13;;;2.20;;
76320;SDS011;65132;52.088;5.402;2023-08-17T02:34:45;5.38;;;2.85;;
76320;SDS011;65132;52.088;5.402;2023-08-17T02:37:16;5.63;;;1.67;;
76320;SDS011;65132;52.088;5.402;2023-08-17T02:39:56;5.25;;;2.00;;
76320;SDS011;65132;52.088;5.402;2023-08-17T02:42:23;5.30;;;2.53;;
76320;SDS011;65132;52.088;5.402;2023-08-17T02:44:52;5.78;;;2.45;;
76320;SDS011;65132;52.088;5.402;2023-08-17T02:47:29;7.63;;;2.35;;
76320;SDS011;65132;52.088;5.402;2023-08-17T02:49:58;6.43;;;3.30;;
76320;SDS011;65132;52.088;5.402;2023-08-17T02:52:24;4.57;;;2.58;;
76320;SDS011;65132;52.088;5.402;2023-08-17T02:54:55;6.80;;;2.63;;
76320;SDS011;65132;52.088;5.402;2023-08-17T02:57:22;6.00;;;2.50;;
76320;SDS011;65132;52.088;5.402;2023-08-17T03:00:01;7.22;;;2.47;;
76320;SDS011;65132;52.088;5.402;2023-08-17T03:02:27;5.13;;;2.72;;
76320;SDS011;65132;52.088;5.402;2023-08-17T03:05:01;6.18;;;3.17;;
76320;SDS011;65132;52.088;5.402;2023-08-17T03:07:31;3.65;;;2.30;;
76320;SDS011;65132;52.088;5.402;2023-08-17T03:10:09;5.18;;;2.70;;
76320;SDS011;65132;52.088;5.402;2023-08-17T03:12:39;6.03;;;2.38;;
76320;SDS011;65132;52.088;5.402;2023-08-17T03:15:06;6.68;;;2.42;;
76320;SDS011;65132;52.088;5.402;2023-08-17T03:17:34;4.70;;;2.72;;
76320;SDS011;65132;52.088;5.402;2023-08-17T03:20:06;5.30;;;3.55;;
76320;SDS011;65132;52.088;5.402;2023-08-17T03:22:39;5.50;;;2.38;;
76320;SDS011;65132;52.088;5.402;2023-08-17T03:25:08;5.43;;;2.80;;
76320;SDS011;65132;52.088;5.402;2023-08-17T03:27:35;7.68;;;2.58;;
76320;SDS011;65132;52.088;5.402;2023-08-17T03:30:02;9.40;;;2.53;;
76320;SDS011;65132;52.088;5.402;2023-08-17T03:32:33;8.15;;;2.88;;
76320;SDS011;65132;52.088;5.402;2023-08-17T03:35:02;5.65;;;2.33;;
76320;SDS011;65132;52.088;5.402;2023-08-17T03:37:38;8.20;;;2.97;;
76320;SDS011;65132;52.088;5.402;2023-08-17T03:40:05;6.32;;;2.70;;
76320;SDS011;65132;52.088;5.402;2023-08-17T03:45:01;7.93;;;2.05;;
76320;SDS011;65132;52.088;5.402;2023-08-17T03:48:00;4.20;;;1.67;;
76320;SDS011;65132;52.088;5.402;2023-08-17T03:50:27;6.25;;;2.83;;
76320;SDS011;65132;52.088;5.402;2023-08-17T03:52:54;6.68;;;2.88;;
76320;SDS011;65132;52.088;5.402;2023-08-17T03:55:28;3.63;;;2.80;;
76320;SDS011;65132;52.088;5.402;2023-08-17T03:58:01;5.63;;;2.60;;
76320;SDS011;65132;52.088;5.402;2023-08-17T04:00:30;6.63;;;3.20;;
76320;SDS011;65132;52.088;5.402;2023-08-17T04:03:02;8.27;;;3.25;;
76320;SDS011;65132;52.088;5.402;2023-08-17T04:05:28;4.57;;;1.95;;
76320;SDS011;65132;52.088;5.402;2023-08-17T04:07:58;7.03;;;3.28;;
76320;SDS011;65132;52.088;5.402;2023-08-17T04:10:27;5.75;;;2.65;;
76320;SDS011;65132;52.088;5.402;2023-08-17T04:13:02;5.65;;;2.42;;
76320;SDS011;65132;52.088;5.402;2023-08-17T04:15:37;5.25;;;2.60;;
76320;SDS011;65132;52.088;5.402;2023-08-17T04:18:06;8.93;;;2.95;;
76320;SDS011;65132;52.088;5.402;2023-08-17T04:20:33;4.30;;;2.17;;
76320;SDS011;65132;52.088;5.402;2023-08-17T04:23:00;4.25;;;2.40;;
76320;SDS011;65132;52.088;5.402;2023-08-17T04:25:36;5.07;;;2.60;;
76320;SDS011;65132;52.088;5.402;2023-08-17T04:28:05;6.15;;;2.50;;
76320;SDS011;65132;52.088;5.402;2023-08-17T04:30:32;5.20;;;2.58;;
76320;SDS011;65132;52.088;5.402;2023-08-17T04:32:59;3.40;;;1.83;;
76320;SDS011;65132;52.088;5.402;2023-08-17T04:35:26;6.38;;;2.30;;
76320;SDS011;65132;52.088;5.402;2023-08-17T04:37:55;4.85;;;2.38;;
76320;SDS011;65132;52.088;5.402;2023-08-17T04:40:24;4.28;;;2.50;;
76320;SDS011;65132;52.088;5.402;2023-08-17T04:42:51;5.22;;;1.90;;
76320;SDS011;65132;52.088;5.402;2023-08-17T04:45:21;4.90;;;2.05;;
76320;SDS011;65132;52.088;5.402;2023-08-17T04:47:52;4.18;;;2.00;;
76320;SDS011;65132;52.088;5.402;2023-08-17T04:50:28;6.50;;;1.83;;
76320;SDS011;65132;52.088;5.402;2023-08-17T04:52:55;3.05;;;1.38;;
76320;SDS011;65132;52.088;5.402;2023-08-17T04:55:27;5.53;;;1.50;;
76320;SDS011;65132;52.088;5.402;2023-08-17T04:58:02;6.95;;;2.25;;
76320;SDS011;65132;52.088;5.402;2023-08-17T05:00:34;6.53;;;1.50;;
76320;SDS011;65132;52.088;5.402;2023-08-17T05:03:16;5.75;;;1.63;;
76320;SDS011;65132;52.088;5.402;2023-08-17T05:05:58;4.90;;;2.20;;
76320;SDS011;65132;52.088;5.402;2023-08-17T05:08:25;3.63;;;1.60;;
76320;SDS011;65132;52.088;5.402;2023-08-17T05:10:52;8.00;;;2.35;;
76320;SDS011;65132;52.088;5.402;2023-08-17T05:13:22;5.07;;;2.00;;
76320;SDS011;65132;52.088;5.402;2023-08-17T05:16:07;4.38;;;2.35;;
76320;SDS011;65132;52.088;5.402;2023-08-17T05:18:42;3.55;;;2.00;;
76320;SDS011;65132;52.088;5.402;2023-08-17T05:21:08;6.95;;;2.15;;
76320;SDS011;65132;52.088;5.402;2023-08-17T05:23:34;5.82;;;2.17;;
76320;SDS011;65132;52.088;5.402;2023-08-17T05:26:04;4.80;;;2.15;;
76320;SDS011;65132;52.088;5.402;2023-08-17T05:28:49;5.70;;;1.40;;
76320;SDS011;65132;52.088;5.402;2023-08-17T05:31:20;5.53;;;1.80;;
76320;SDS011;65132;52.088;5.402;2023-08-17T05:33:49;6.90;;;1.90;;
76320;SDS011;65132;52.088;5.402;2023-08-17T05:36:15;4.13;;;1.70;;
76320;SDS011;65132;52.088;5.402;2023-08-17T05:38:42;3.30;;;1.92;;
76320;SDS011;65132;52.088;5.402;2023-08-17T05:41:09;3.33;;;1.67;;
76320;SDS011;65132;52.088;5.402;2023-08-17T05:43:36;3.92;;;1.88;;
76320;SDS011;65132;52.088;5.402;2023-08-17T05:46:11;3.55;;;1.83;;
76320;SDS011;65132;52.088;5.402;2023-08-17T05:48:40;4.97;;;1.95;;
76320;SDS011;65132;52.088;5.402;2023-08-17T05:51:09;5.55;;;1.88;;
76320;SDS011;65132;52.088;5.402;2023-08-17T05:53:35;7.00;;;1.90;;
76320;SDS011;65132;52.088;5.402;2023-08-17T05:56:02;9.00;;;1.95;;
76320;SDS011;65132;52.088;5.402;2023-08-17T05:58:34;3.47;;;1.92;;
76320;SDS011;65132;52.088;5.402;2023-08-17T06:01:04;6.78;;;1.90;;
76320;SDS011;65132;52.088;5.402;2023-08-17T06:03:36;5.10;;;2.00;;
76320;SDS011;65132;52.088;5.402;2023-08-17T06:08:33;4.00;;;2.00;;
76320;SDS011;65132;52.088;5.402;2023-08-17T06:11:02;6.03;;;2.08;;
76320;SDS011;65132;52.088;5.402;2023-08-17T06:13:28;4.55;;;2.28;;
76320;SDS011;65132;52.088;5.402;2023-08-17T06:16:01;3.53;;;2.28;;
76320;SDS011;65132;52.088;5.402;2023-08-17T06:18:30;7.88;;;2.00;;
76320;SDS011;65132;52.088;5.402;2023-08-17T06:20:58;6.10;;;1.88;;
76320;SDS011;65132;52.088;5.402;2023-08-17T06:23:25;3.67;;;1.58;;
76320;SDS011;65132;52.088;5.402;2023-08-17T06:25:56;5.32;;;1.45;;
76320;SDS011;65132;52.088;5.402;2023-08-17T06:28:24;3.67;;;2.30;;
76320;SDS011;65132;52.088;5.402;2023-08-17T06:31:01;6.85;;;1.95;;
76320;SDS011;65132;52.088;5.402;2023-08-17T06:33:29;5.78;;;2.00;;
76320;SDS011;65132;52.088;5.402;2023-08-17T06:35:57;5.80;;;2.60;;
76320;SDS011;65132;52.088;5.402;2023-08-17T06:38:24;6.72;;;2.00;;
76320;SDS011;65132;52.088;5.402;2023-08-17T06:40:51;4.93;;;1.98;;
76320;SDS011;65132;52.088;5.402;2023-08-17T06:43:23;4.70;;;2.28;;
76320;SDS011;65132;52.088;5.402;2023-08-17T06:45:54;5.55;;;2.25;;
76320;SDS011;65132;52.088;5.402;2023-08-17T06:48:23;5.35;;;2.35;;
76320;SDS011;65132;52.088;5.402;2023-08-17T06:50:50;8.38;;;1.90;;
76320;SDS011;65132;52.088;5.402;2023-08-17T06:53:16;6.90;;;2.00;;
76320;SDS011;65132;52.088;5.402;2023-08-17T06:55:43;4.35;;;1.92;;
76320;SDS011;65132;52.088;5.402;2023-08-17T06:58:09;4.90;;;1.60;;
76320;SDS011;65132;52.088;5.402;2023-08-17T07:00:38;8.43;;;2.72;;
76320;SDS011;65132;52.088;5.402;2023-08-17T07:03:05;4.20;;;2.00;;
76320;SDS011;65132;52.088;5.402;2023-08-17T07:05:31;5.10;;;2.25;;
76320;SDS011;65132;52.088;5.402;2023-08-17T07:07:58;9.07;;;2.80;;
76320;SDS011;65132;52.088;5.402;2023-08-17T07:10:25;7.30;;;2.33;;
76320;SDS011;65132;52.088;5.402;2023-08-17T07:12:54;5.00;;;2.10;;
76320;SDS011;65132;52.088;5.402;2023-08-17T07:15:21;7.00;;;2.45;;
76320;SDS011;65132;52.088;5.402;2023-08-17T07:17:47;4.35;;;2.10;;
76320;SDS011;65132;52.088;5.402;2023-08-17T07:20:13;6.05;;;2.50;;
76320;SDS011;65132;52.088;5.402;2023-08-17T07:22:43;4.85;;;2.47;;
76320;SDS011;65132;52.088;5.402;2023-08-17T07:25:10;6.30;;;2.20;;
76320;SDS011;65132;52.088;5.402;2023-08-17T07:27:37;2.80;;;2.08;;
76320;SDS011;65132;52.088;5.402;2023-08-17T07:30:04;5.05;;;2.30;;
76320;SDS011;65132;52.088;5.402;2023-08-17T07:32:34;4.70;;;1.92;;
76320;SDS011;65132;52.088;5.402;2023-08-17T07:35:06;5.72;;;2.10;;
76320;SDS011;65132;52.088;5.402;2023-08-17T07:37:33;8.40;;;2.28;;
76320;SDS011;65132;52.088;5.402;2023-08-17T07:40:05;7.53;;;1.90;;
76320;SDS011;65132;52.088;5.402;2023-08-17T07:42:38;7.00;;;2.60;;
76320;SDS011;65132;52.088;5.402;2023-08-17T07:45:04;5.68;;;2.55;;
76320;SDS011;65132;52.088;5.402;2023-08-17T07:47:31;6.13;;;1.88;;
76320;SDS011;65132;52.088;5.402;2023-08-17T07:50:14;5.47;;;2.15;;
76320;SDS011;65132;52.088;5.402;2023-08-17T07:52:40;4.43;;;1.65;;
76320;SDS011;65132;52.088;5.402;2023-08-17T07:55:08;8.70;;;2.58;;
76320;SDS011;65132;52.088;5.402;2023-08-17T07:57:35;5.07;;;2.00;;
76320;SDS011;65132;52.088;5.402;2023-08-17T08:00:04;6.00;;;2.10;;
76320;SDS011;65132;52.088;5.402;2023-08-17T08:02:33;4.13;;;2.28;;
76320;SDS011;65132;52.088;5.402;2023-08-17T08:05:00;7.32;;;2.92;;
76320;SDS011;65132;52.088;5.402;2023-08-17T08:07:26;5.18;;;1.90;;
76320;SDS011;65132;52.088;5.402;2023-08-17T08:09:56;5.47;;;1.85;;
76320;SDS011;65132;52.088;5.402;2023-08-17T08:12:22;5.57;;;1.88;;
76320;SDS011;65132;52.088;5.402;2023-08-17T08:14:49;4.45;;;2.00;;
76320;SDS011;65132;52.088;5.402;2023-08-17T08:17:15;3.17;;;1.90;;
76320;SDS011;65132;52.088;5.402;2023-08-17T08:19:42;7.75;;;2.40;;
76320;SDS011;65132;52.088;5.402;2023-08-17T08:22:10;4.20;;;1.98;;
76320;SDS011;65132;52.088;5.402;2023-08-17T08:24:36;4.43;;;1.77;;
76320;SDS011;65132;52.088;5.402;2023-08-17T08:29:34;4.80;;;2.20;;
76320;SDS011;65132;52.088;5.402;2023-08-17T08:32:06;3.85;;;1.80;;
76320;SDS011;65132;52.088;5.402;2023-08-17T08:34:32;5.35;;;2.15;;
76320;SDS011;65132;52.088;5.402;2023-08-17T08:36:58;4.60;;;2.25;;
76320;SDS011;65132;52.088;5.402;2023-08-17T08:39:25;5.95;;;2.10;;
76320;SDS011;65132;52.088;5.402;2023-08-17T08:41:58;4.18;;;1.85;;
76320;SDS011;65132;52.088;5.402;2023-08-17T08:44:34;5.82;;;2.08;;
76320;SDS011;65132;52.088;5.402;2023-08-17T08:47:00;3.85;;;2.00;;
76320;SDS011;65132;52.088;5.402;2023-08-17T08:49:33;4.60;;;2.40;;
76320;SDS011;65132;52.088;5.402;2023-08-17T08:52:08;5.15;;;2.00;;
76320;SDS011;65132;52.088;5.402;2023-08-17T08:54:39;6.68;;;1.98;;
76320;SDS011;65132;52.088;5.402;2023-08-17T08:57:17;6.38;;;2.47;;
76320;SDS011;65132;52.088;5.402;2023-08-17T08:59:44;6.00;;;2.17;;
76320;SDS011;65132;52.088;5.402;2023-08-17T09:02:13;4.75;;;2.05;;
76320;SDS011;65132;52.088;5.402;2023-08-17T09:04:42;3.35;;;1.83;;
76320;SDS011;65132;52.088;5.402;2023-08-17T09:07:09;6.15;;;2.53;;
76320;SDS011;65132;52.088;5.402;2023-08-17T09:09:40;6.07;;;2.25;;
76320;SDS011;65132;52.088;5.402;2023-08-17T09:12:12;5.53;;;2.30;;
76320;SDS011;65132;52.088;5.402;2023-08-17T09:15:05;5.38;;;1.30;;
76320;SDS011;65132;52.088;5.402;2023-08-17T09:17:35;5.93;;;2.13;;
76320;SDS011;65132;52.088;5.402;2023-08-17T09:20:01;3.92;;;1.77;;
76320;SDS011;65132;52.088;5.402;2023-08-17T09:22:38;7.22;;;2.22;;
76320;SDS011;65132;52.088;5.402;2023-08-17T09:25:10;6.60;;;2.08;;
76320;SDS011;65132;52.088;5.402;2023-08-17T09:27:41;4.50;;;2.03;;
76320;SDS011;65132;52.088;5.402;2023-08-17T09:30:09;3.85;;;1.80;;
76320;SDS011;65132;52.088;5.402;2023-08-17T09:32:36;4.78;;;2.47;;
76320;SDS011;65132;52.088;5.402;2023-08-17T09:35:05;4.43;;;2.22;;
76320;SDS011;65132;52.088;5.402;2023-08-17T09:37:34;6.30;;;2.47;;
76320;SDS011;65132;52.088;5.402;2023-08-17T09:40:00;5.60;;;2.60;;
76320;SDS011;65132;52.088;5.402;2023-08-17T09:42:34;5.10;;;2.28;;
76320;SDS011;65132;52.088;5.402;2023-08-17T09:47:28;7.43;;;2.97;;
76320;SDS011;65132;52.088;5.402;2023-08-17T09:50:00;3.55;;;2.15;;
76320;SDS011;65132;52.088;5.402;2023-08-17T09:52:26;5.70;;;2.58;;
76320;SDS011;65132;52.088;5.402;2023-08-17T09:54:56;5.55;;;2.42;;
76320;SDS011;65132;52.088;5.402;2023-08-17T09:57:24;7.15;;;2.78;;
76320;SDS011;65132;52.088;5.402;2023-08-17T10:00:01;5.55;;;2.40;;
76320;SDS011;65132;52.088;5.402;2023-08-17T10:02:28;5.53;;;2.55;;
76320;SDS011;65132;52.088;5.402;2023-08-17T10:04:58;6.43;;;2.35;;
76320;SDS011;65132;52.088;5.402;2023-08-17T10:07:28;8.88;;;2.63;;
76320;SDS011;65132;52.088;5.402;2023-08-17T10:10:03;4.80;;;2.40;;
76320;SDS011;65132;52.088;5.402;2023-08-17T10:12:44;8.20;;;3.00;;
76320;SDS011;65132;52.088;5.402;2023-08-17T10:15:20;7.05;;;2.92;;
76320;SDS011;65132;52.088;5.402;2023-08-17T10:18:05;8.15;;;2.90;;
76320;SDS011;65132;52.088;5.402;2023-08-17T10:20:42;5.38;;;2.63;;
76320;SDS011;65132;52.088;5.402;2023-08-17T10:23:16;6.93;;;2.53;;
76320;SDS011;65132;52.088;5.402;2023-08-17T10:25:45;6.38;;;3.38;;
76320;SDS011;65132;52.088;5.402;2023-08-17T10:28:16;5.60;;;2.80;;
76320;SDS011;65132;52.088;5.402;2023-08-17T10:30:45;6.85;;;2.90;;
76320;SDS011;65132;52.088;5.402;2023-08-17T10:33:12;5.57;;;3.17;;
76320;SDS011;65132;52.088;5.402;2023-08-17T10:35:47;6.00;;;2.63;;
76320;SDS011;65132;52.088;5.402;2023-08-17T10:38:14;7.07;;;3.53;;
76320;SDS011;65132;52.088;5.402;2023-08-17T10:40:41;7.28;;;2.50;;
76320;SDS011;65132;52.088;5.402;2023-08-17T10:43:08;7.47;;;3.22;;
76320;SDS011;65132;52.088;5.402;2023-08-17T10:45:35;6.95;;;2.60;;
76320;SDS011;65132;52.088;5.402;2023-08-17T10:50:34;6.15;;;2.50;;
76320;SDS011;65132;52.088;5.402;2023-08-17T10:53:13;6.88;;;2.85;;
76320;SDS011;65132;52.088;5.402;2023-08-17T10:55:47;6.60;;;2.85;;
76320;SDS011;65132;52.088;5.402;2023-08-17T10:58:18;9.15;;;3.60;;
76320;SDS011;65132;52.088;5.402;2023-08-17T11:00:46;7.78;;;2.92;;
76320;SDS011;65132;52.088;5.402;2023-08-17T11:03:19;6.13;;;2.78;;
76320;SDS011;65132;52.088;5.402;2023-08-17T11:13:45;6.18;;;3.33;;
76320;SDS011;65132;52.088;5.402;2023-08-17T11:16:13;4.30;;;2.65;;
76320;SDS011;65132;52.088;5.402;2023-08-17T11:18:44;6.95;;;2.88;;
76320;SDS011;65132;52.088;5.402;2023-08-17T11:21:11;5.78;;;2.60;;
76320;SDS011;65132;52.088;5.402;2023-08-17T11:23:44;8.02;;;3.55;;
76320;SDS011;65132;52.088;5.402;2023-08-17T11:26:11;8.13;;;2.80;;
76320;SDS011;65132;52.088;5.402;2023-08-17T11:28:48;8.38;;;3.45;;
76320;SDS011;65132;52.088;5.402;2023-08-17T11:31:16;6.45;;;2.95;;
76320;SDS011;65132;52.088;5.402;2023-08-17T11:33:43;6.80;;;3.65;;
76320;SDS011;65132;52.088;5.402;2023-08-17T11:36:13;5.70;;;3.10;;
76320;SDS011;65132;52.088;5.402;2023-08-17T11:38:41;8.02;;;3.92;;
76320;SDS011;65132;52.088;5.402;2023-08-17T11:41:09;5.88;;;2.75;;
76320;SDS011;65132;52.088;5.402;2023-08-17T11:43:43;7.10;;;3.13;;
76320;SDS011;65132;52.088;5.402;2023-08-17T11:46:13;5.93;;;3.17;;
76320;SDS011;65132;52.088;5.402;2023-08-17T11:49:00;9.00;;;3.83;;
76320;SDS011;65132;52.088;5.402;2023-08-17T11:51:53;5.93;;;2.83;;
76320;SDS011;65132;52.088;5.402;2023-08-17T11:54:19;7.35;;;3.10;;
76320;SDS011;65132;52.088;5.402;2023-08-17T11:56:48;6.03;;;3.45;;
76320;SDS011;65132;52.088;5.402;2023-08-17T11:59:17;6.68;;;2.53;;
76320;SDS011;65132;52.088;5.402;2023-08-17T12:01:53;5.97;;;3.35;;
76320;SDS011;65132;52.088;5.402;2023-08-17T12:04:55;6.03;;;3.22;;
76320;SDS011;65132;52.088;5.402;2023-08-17T12:07:24;7.47;;;2.28;;
76320;SDS011;65132;52.088;5.402;2023-08-17T12:10:18;5.47;;;2.90;;
76320;SDS011;65132;52.088;5.402;2023-08-17T12:12:59;5.20;;;2.97;;
76320;SDS011;65132;52.088;5.402;2023-08-17T12:16:14;7.00;;;3.22;;
76320;SDS011;65132;52.088;5.402;2023-08-17T12:18:44;6.75;;;2.83;;
76320;SDS011;65132;52.088;5.402;2023-08-17T12:21:14;7.00;;;3.75;;
76320;SDS011;65132;52.088;5.402;2023-08-17T12:23:44;6.95;;;3.45;;
76320;SDS011;65132;52.088;5.402;2023-08-17T12:26:28;6.43;;;4.00;;
76320;SDS011;65132;52.088;5.402;2023-08-17T12:29:04;6.85;;;3.30;;
76320;SDS011;65132;52.088;5.402;2023-08-17T12:31:53;5.03;;;3.10;;
76320;SDS011;65132;52.088;5.402;2023-08-17T12:34:34;5.53;;;3.30;;
76320;SDS011;65132;52.088;5.402;2023-08-17T12:37:00;6.40;;;3.75;;
76320;SDS011;65132;52.088;5.402;2023-08-17T12:39:29;7.70;;;3.63;;
76320;SDS011;65132;52.088;5.402;2023-08-17T12:41:59;6.47;;;4.03;;
76320;SDS011;65132;52.088;5.402;2023-08-17T12:44:39;6.88;;;4.15;;
76320;SDS011;65132;52.088;5.402;2023-08-17T12:47:06;6.20;;;3.40;;
76320;SDS011;65132;52.088;5.402;2023-08-17T12:49:37;6.57;;;3.35;;
76320;SDS011;65132;52.088;5.402;2023-08-17T12:52:07;4.80;;;3.75;;
76320;SDS011;65132;52.088;5.402;2023-08-17T12:54:38;6.15;;;4.00;;
76320;SDS011;65132;52.088;5.402;2023-08-17T12:59:38;7.30;;;2.88;;
76320;SDS011;65132;52.088;5.402;2023-08-17T13:02:14;8.32;;;3.38;;
76320;SDS011;65132;52.088;5.402;2023-08-17T13:04:52;6.70;;;3.72;;
76320;SDS011;65132;52.088;5.402;2023-08-17T13:07:19;6.60;;;3.40;;
76320;SDS011;65132;52.088;5.402;2023-08-17T13:09:45;6.05;;;3.33;;
76320;SDS011;65132;52.088;5.402;2023-08-17T13:14:48;7.47;;;3.40;;
76320;SDS011;65132;52.088;5.402;2023-08-17T13:17:23;5.65;;;3.40;;
76320;SDS011;65132;52.088;5.402;2023-08-17T13:19:57;6.35;;;3.45;;
76320;SDS011;65132;52.088;5.402;2023-08-17T13:22:25;5.65;;;3.47;;
76320;SDS011;65132;52.088;5.402;2023-08-17T13:27:30;6.00;;;3.72;;
76320;SDS011;65132;52.088;5.402;2023-08-17T13:30:00;6.55;;;3.50;;
76320;SDS011;65132;52.088;5.402;2023-08-17T13:32:27;5.53;;;3.40;;
76320;SDS011;65132;52.088;5.402;2023-08-17T13:34:54;6.18;;;3.70;;
76320;SDS011;65132;52.088;5.402;2023-08-17T13:37:21;5.68;;;3.03;;
76320;SDS011;65132;52.088;5.402;2023-08-17T13:39:47;4.78;;;3.45;;
76320;SDS011;65132;52.088;5.402;2023-08-17T13:42:19;8.93;;;4.28;;
76320;SDS011;65132;52.088;5.402;2023-08-17T13:44:46;6.70;;;4.00;;
76320;SDS011;65132;52.088;5.402;2023-08-17T13:47:15;7.93;;;3.70;;
76320;SDS011;65132;52.088;5.402;2023-08-17T13:49:42;6.85;;;4.15;;
76320;SDS011;65132;52.088;5.402;2023-08-17T13:52:11;6.32;;;3.70;;
76320;SDS011;65132;52.088;5.402;2023-08-17T13:54:40;7.13;;;3.42;;
76320;SDS011;65132;52.088;5.402;2023-08-17T13:57:07;6.07;;;2.97;;
76320;SDS011;65132;52.088;5.402;2023-08-17T13:59:33;9.55;;;4.22;;
76320;SDS011;65132;52.088;5.402;2023-08-17T14:02:00;6.13;;;3.70;;
76320;SDS011;65132;52.088;5.402;2023-08-17T14:04:28;5.38;;;3.80;;
76320;SDS011;65132;52.088;5.402;2023-08-17T14:06:58;6.82;;;4.15;;
76320;SDS011;65132;52.088;5.402;2023-08-17T14:09:32;6.60;;;4.00;;
76320;SDS011;65132;52.088;5.402;2023-08-17T14:12:01;4.95;;;3.70;;
76320;SDS011;65132;52.088;5.402;2023-08-17T14:14:32;6.40;;;3.08;;
76320;SDS011;65132;52.088;5.402;2023-08-17T14:17:02;5.70;;;3.80;;
76320;SDS011;65132;52.088;5.402;2023-08-17T14:19:32;6.53;;;4.15;;
76320;SDS011;65132;52.088;5.402;2023-08-17T14:21:58;6.32;;;4.10;;
76320;SDS011;65132;52.088;5.402;2023-08-17T14:24:25;6.55;;;4.00;;
76320;SDS011;65132;52.088;5.402;2023-08-17T14:26:51;6.45;;;3.53;;
76320;SDS011;65132;52.088;5.402;2023-08-17T14:29:18;6.43;;;3.30;;
76320;SDS011;65132;52.088;5.402;2023-08-17T14:31:45;8.07;;;4.18;;
76320;SDS011;65132;52.088;5.402;2023-08-17T14:34:11;5.65;;;3.88;;
76320;SDS011;65132;52.088;5.402;2023-08-17T14:36:38;8.23;;;4.20;;
76320;SDS011;65132;52.088;5.402;2023-08-17T14:39:04;5.85;;;3.88;;
76320;SDS011;65132;52.088;5.402;2023-08-17T14:41:31;8.27;;;4.22;;
76320;SDS011;65132;52.088;5.402;2023-08-17T14:43:58;6.28;;;4.15;;
76320;SDS011;65132;52.088;5.402;2023-08-17T14:46:28;6.72;;;4.15;;
76320;SDS011;65132;52.088;5.402;2023-08-17T14:48:56;6.32;;;4.10;;
76320;SDS011;65132;52.088;5.402;2023-08-17T14:51:29;9.07;;;4.93;;
76320;SDS011;65132;52.088;5.402;2023-08-17T14:53:57;6.53;;;4.43;;
76320;SDS011;65132;52.088;5.402;2023-08-17T14:56:27;5.38;;;3.47;;
76320;SDS011;65132;52.088;5.402;2023-08-17T14:58:55;7.40;;;4.55;;
76320;SDS011;65132;52.088;5.402;2023-08-17T15:01:23;7.82;;;4.65;;
76320;SDS011;65132;52.088;5.402;2023-08-17T15:03:52;7.32;;;3.80;;
76320;SDS011;65132;52.088;5.402;2023-08-17T15:06:26;6.80;;;3.95;;
76320;SDS011;65132;52.088;5.402;2023-08-17T15:09:00;7.72;;;3.60;;
76320;SDS011;65132;52.088;5.402;2023-08-17T15:11:29;7.95;;;4.63;;
76320;SDS011;65132;52.088;5.402;2023-08-17T15:13:55;8.23;;;5.20;;
76320;SDS011;65132;52.088;5.402;2023-08-17T15:16:22;7.28;;;4.10;;
76320;SDS011;65132;52.088;5.402;2023-08-17T15:18:50;6.63;;;4.93;;
76320;SDS011;65132;52.088;5.402;2023-08-17T15:21:19;8.70;;;4.20;;
76320;SDS011;65132;52.088;5.402;2023-08-17T15:23:48;6.30;;;4.03;;
76320;SDS011;65132;52.088;5.402;2023-08-17T15:26:15;10.20;;;4.43;;
76320;SDS011;65132;52.088;5.402;2023-08-17T15:28:59;8.65;;;5.43;;
76320;SDS011;65132;52.088;5.402;2023-08-17T15:31:29;7.70;;;5.05;;
76320;SDS011;65132;52.088;5.402;2023-08-17T15:33:56;7.68;;;4.90;;
76320;SDS011;65132;52.088;5.402;2023-08-17T15:36:22;7.82;;;4.78;;
76320;SDS011;65132;52.088;5.402;2023-08-17T15:38:49;9.30;;;5.63;;
76320;SDS011;65132;52.088;5.402;2023-08-17T15:41:17;7.10;;;4.50;;
76320;SDS011;65132;52.088;5.402;2023-08-17T15:43:46;7.10;;;5.00;;
76320;SDS011;65132;52.088;5.402;2023-08-17T15:46:13;7.25;;;5.15;;
76320;SDS011;65132;52.088;5.402;2023-08-17T15:48:49;9.18;;;5.28;;